createdAt,value
2018-04-26T00:01:38.135Z,96085.14
2018-04-26T00:04:07.167Z,96076.44
2018-04-26T00:06:36.376Z,96085.70
2018-04-26T00:09:05.393Z,96087.55
2018-04-26T00:11:34.909Z,96081.72
2018-04-26T00:14:04.207Z,96078.47
2018-04-26T00:16:33.925Z,96079.69
2018-04-26T00:19:03.497Z,96081.18
2018-04-26T00:21:33.405Z,96077.03
2018-04-26T00:24:02.907Z,96081.37
2018-04-26T00:26:32.393Z,96079.45
2018-04-26T00:29:02.314Z,96080.12
2018-04-26T00:31:31.815Z,96080.97
2018-04-26T00:34:01.044Z,96079.52
2018-04-26T00:36:30.595Z,96078.88
2018-04-26T00:39:00.117Z,96079.75
2018-04-26T00:41:29.620Z,96087.69
2018-04-26T00:43:59.163Z,96066.64
2018-04-26T00:46:29.079Z,96065.66
2018-04-26T00:48:59.007Z,96071.19
2018-04-26T00:51:45.527Z,96060.61
2018-04-26T00:54:15.071Z,96056.77
2018-04-26T00:56:44.578Z,96058.73
2018-04-26T00:59:14.083Z,96065.75
2018-04-26T01:01:43.581Z,96057.59
2018-04-26T01:04:13.079Z,96053.80
2018-04-26T01:06:42.579Z,96056.97
2018-04-26T01:09:12.079Z,96056.11
2018-04-26T01:11:41.586Z,96060.02
2018-04-26T01:14:11.113Z,96057.56
2018-04-26T01:16:40.613Z,96066.38
2018-04-26T01:19:10.108Z,96064.06
2018-04-26T01:21:39.617Z,96059.59
2018-04-26T01:24:09.115Z,96055.52
2018-04-26T01:26:38.604Z,96055.95
2018-04-26T01:29:08.101Z,96062.73
2018-04-26T01:31:37.607Z,96067.78
2018-04-26T01:34:07.108Z,96062.45
2018-04-26T01:36:54.054Z,96066.09
2018-04-26T01:39:23.540Z,96072.41
2018-04-26T01:41:53.042Z,96061.88
2018-04-26T01:44:22.562Z,96070.06
2018-04-26T01:46:53.760Z,96069.31
2018-04-26T01:49:23.258Z,96061.80
2018-04-26T01:51:52.748Z,96057.98
2018-04-26T01:54:22.234Z,96052.66
2018-04-26T01:56:51.732Z,96052.50
2018-04-26T01:59:21.250Z,96053.45
2018-04-26T02:01:50.763Z,96049.76
2018-04-26T02:04:20.468Z,96049.52
2018-04-26T02:06:49.970Z,96051.41
2018-04-26T02:09:19.479Z,96058.69
2018-04-26T02:11:48.971Z,96052.47
2018-04-26T02:14:18.473Z,96051.61
2018-04-26T02:16:47.970Z,96047.84
2018-04-26T02:19:17.502Z,96042.59
2018-04-26T02:21:46.998Z,96050.19
2018-04-26T02:24:16.504Z,96058.61
2018-04-26T02:26:46.021Z,96053.13
2018-04-26T02:29:15.710Z,96057.98
2018-04-26T02:31:45.214Z,96052.81
2018-04-26T02:34:14.725Z,96051.28
2018-04-26T02:36:44.225Z,96058.09
2018-04-26T02:39:13.735Z,96054.77
2018-04-26T02:41:43.254Z,96062.56
2018-04-26T02:44:12.758Z,96073.47
2018-04-26T02:46:42.262Z,96079.15
2018-04-26T02:49:11.765Z,96078.09
2018-04-26T02:51:41.283Z,96080.91
2018-04-26T02:54:10.772Z,96092.98
2018-04-26T02:56:40.297Z,96090.16
2018-04-26T02:59:09.791Z,96093.52
2018-04-26T03:01:39.289Z,96087.45
2018-04-26T03:04:09.102Z,96089.33
2018-04-26T03:06:38.607Z,96100.30
2018-04-26T03:09:08.099Z,96098.48
2018-04-26T03:11:38.157Z,96106.09
2018-04-26T03:14:07.709Z,96112.36
2018-04-26T03:16:37.242Z,96107.50
2018-04-26T03:19:06.753Z,96114.14
2018-04-26T03:21:35.918Z,96120.28
2018-04-26T03:24:05.825Z,96114.36
2018-04-26T03:26:35.761Z,96111.95
2018-04-26T03:29:04.940Z,96112.27
2018-04-26T03:31:34.838Z,96112.29
2018-04-26T03:34:04.353Z,96122.75
2018-04-26T03:36:34.277Z,96120.95
2018-04-26T03:39:03.688Z,96129.55
2018-04-26T03:41:33.213Z,96119.65
2018-04-26T03:44:02.705Z,96117.67
2018-04-26T03:46:32.222Z,96124.63
2018-04-26T03:49:01.734Z,96124.48
2018-04-26T03:51:31.233Z,96122.11
2018-04-26T03:54:00.932Z,96137.43
2018-04-26T03:56:30.826Z,96140.17
2018-04-26T03:59:00.749Z,96133.32
2018-04-26T04:01:47.582Z,96132.97
2018-04-26T04:07:25.058Z,96152.02
2018-04-26T04:09:54.552Z,96150.75
2018-04-26T04:12:24.043Z,96161.45
2018-04-26T04:14:53.574Z,96164.55
2018-04-26T04:17:23.077Z,96170.23
2018-04-26T04:19:52.578Z,96174.93
2018-04-26T04:22:22.080Z,96165.63
2018-04-26T04:24:51.441Z,96172.67
2018-04-26T04:27:20.832Z,96171.89
2018-04-26T04:29:50.343Z,96180.66
2018-04-26T04:32:19.844Z,96182.69
2018-04-26T04:34:49.347Z,96183.48
2018-04-26T04:37:18.847Z,96184.48
2018-04-26T04:39:48.347Z,96179.02
2018-04-26T04:42:18.264Z,96188.83
2018-04-26T04:44:47.762Z,96193.55
2018-04-26T04:47:17.666Z,96193.30
2018-04-26T04:49:47.584Z,96192.73
2018-04-26T04:52:17.492Z,96198.80
2018-04-26T04:54:47.003Z,96201.60
2018-04-26T04:57:16.901Z,96204.71
2018-04-26T04:59:46.408Z,96208.79
2018-04-26T05:02:15.918Z,96215.44
2018-04-26T05:04:45.419Z,96223.27
2018-04-26T05:07:14.992Z,96227.16
2018-04-26T05:09:44.612Z,96227.75
2018-04-26T05:12:14.134Z,96234.80
2018-04-26T05:14:43.622Z,96236.37
2018-04-26T05:17:12.886Z,96229.09
2018-04-26T05:19:42.450Z,96237.11
2018-04-26T05:22:12.725Z,96234.36
2018-04-26T05:24:42.214Z,96244.50
2018-04-26T05:27:11.400Z,96254.05
2018-04-26T05:29:41.614Z,96249.73
2018-04-26T05:32:11.112Z,96244.70
2018-04-26T05:34:40.634Z,96249.89
2018-04-26T05:37:10.560Z,96255.78
2018-04-26T05:39:40.069Z,96263.22
2018-04-26T05:42:09.589Z,96264.03
2018-04-26T05:44:39.100Z,96271.05
2018-04-26T05:47:08.609Z,96279.44
2018-04-26T05:49:38.312Z,96278.09
2018-04-26T05:52:07.834Z,96286.12
2018-04-26T05:54:37.334Z,96293.72
2018-04-26T05:57:06.831Z,96291.20
2018-04-26T05:59:36.325Z,96285.91
2018-04-26T06:02:05.501Z,96286.87
2018-04-26T06:04:35.428Z,96290.77
2018-04-26T06:07:05.335Z,96291.73
2018-04-26T06:09:35.220Z,96288.97
2018-04-26T06:12:04.740Z,96288.61
2018-04-26T06:14:34.082Z,96291.52
2018-04-26T06:17:03.580Z,96287.79
2018-04-26T06:19:33.679Z,96294.42
2018-04-26T06:22:03.638Z,96292.68
2018-04-26T06:24:33.141Z,96288.63
2018-04-26T06:27:02.633Z,96298.55
2018-04-26T06:29:32.147Z,96297.14
2018-04-26T06:32:01.635Z,96292.23
2018-04-26T06:34:31.128Z,96295.77
2018-04-26T06:37:01.032Z,96306.08
2018-04-26T06:39:30.701Z,96310.95
2018-04-26T06:42:00.209Z,96310.23
2018-04-26T06:44:29.711Z,96312.17
2018-04-26T06:46:59.229Z,96312.36
2018-04-26T06:49:28.717Z,96313.11
2018-04-26T06:51:58.221Z,96316.99
2018-04-26T06:54:27.893Z,96314.02
2018-04-26T06:56:57.400Z,96330.64
2018-04-26T06:59:26.899Z,96332.24
2018-04-26T07:01:56.802Z,96319.14
2018-04-26T07:04:26.726Z,96320.53
2018-04-26T07:06:56.639Z,96319.08
2018-04-26T07:09:26.318Z,96311.27
2018-04-26T07:11:56.026Z,96310.88
2018-04-26T07:14:25.580Z,96316.94
2018-04-26T07:16:55.236Z,96327.27
2018-04-26T07:19:24.725Z,96325.35
2018-04-26T07:21:54.244Z,96329.69
2018-04-26T07:24:23.945Z,96329.16
2018-04-26T07:26:53.445Z,96324.26
2018-04-26T07:29:22.965Z,96330.88
2018-04-26T07:31:52.681Z,96329.83
2018-04-26T07:34:22.183Z,96335.05
2018-04-26T07:36:51.693Z,96335.24
2018-04-26T07:39:21.201Z,96327.23
2018-04-26T07:41:50.713Z,96324.93
2018-04-26T07:44:20.211Z,96327.06
2018-04-26T07:46:49.740Z,96330.05
2018-04-26T07:49:19.233Z,96326.45
2018-04-26T07:51:48.751Z,96331.19
2018-04-26T07:54:18.291Z,96339.03
2018-04-26T07:56:47.775Z,96333.75
2018-04-26T07:59:17.665Z,96327.30
2018-04-26T08:01:47.288Z,96336.34
2018-04-26T08:04:16.880Z,96334.91
2018-04-26T08:06:46.379Z,96339.21
2018-04-26T08:09:15.889Z,96340.90
2018-04-26T08:11:45.402Z,96336.77
2018-04-26T08:14:15.089Z,96332.05
2018-04-26T08:16:44.582Z,96335.17
2018-04-26T08:19:14.108Z,96328.95
2018-04-26T08:21:43.621Z,96327.66
2018-04-26T08:24:13.167Z,96331.20
2018-04-26T08:26:42.669Z,96321.84
2018-04-26T08:29:12.175Z,96319.49
2018-04-26T08:31:41.867Z,96328.47
2018-04-26T08:34:11.770Z,96334.58
2018-04-26T08:36:41.279Z,96339.83
2018-04-26T08:39:10.788Z,96338.85
2018-04-26T08:41:40.699Z,96341.02
2018-04-26T08:44:10.198Z,96345.69
2018-04-26T08:46:39.692Z,96344.09
2018-04-26T08:49:09.189Z,96350.91
2018-04-26T08:51:38.699Z,96350.55
2018-04-26T08:54:08.197Z,96348.97
2018-04-26T08:56:37.725Z,96353.88
2018-04-26T08:59:07.235Z,96353.89
2018-04-26T09:01:36.764Z,96343.13
2018-04-26T09:04:06.652Z,96343.93
2018-04-26T09:06:36.142Z,96354.87
2018-04-26T09:09:04.739Z,96351.09
2018-04-26T09:11:34.269Z,96354.33
2018-04-26T09:14:04.352Z,96344.69
2018-04-26T09:16:33.845Z,96345.42
2018-04-26T09:19:03.366Z,96350.30
2018-04-26T09:21:33.065Z,96353.47
2018-04-26T09:24:02.637Z,96347.48
2018-04-26T09:26:32.128Z,96342.44
2018-04-26T09:29:01.655Z,96343.97
2018-04-26T09:31:31.148Z,96351.40
2018-04-26T09:34:00.645Z,96352.20
2018-04-26T09:36:30.545Z,96348.06
2018-04-26T09:39:00.433Z,96349.14
2018-04-26T09:41:29.939Z,96345.40
2018-04-26T09:43:59.425Z,96348.39
2018-04-26T09:46:28.905Z,96341.09
2018-04-26T09:48:58.389Z,96344.09
2018-04-26T09:51:28.291Z,96346.23
2018-04-26T09:53:58.179Z,96348.80
2018-04-26T09:56:27.681Z,96353.91
2018-04-26T09:58:57.419Z,96353.16
2018-04-26T10:01:28.517Z,96342.48
2018-04-26T10:04:03.604Z,96344.36
2018-04-26T10:06:33.279Z,96347.14
2018-04-26T10:09:02.775Z,96345.19
2018-04-26T10:11:32.287Z,96341.47
2018-04-26T10:14:01.781Z,96338.55
2018-04-26T10:16:31.316Z,96337.30
2018-04-26T10:19:00.868Z,96338.86
2018-04-26T10:21:30.386Z,96336.55
2018-04-26T10:23:59.914Z,96335.25
2018-04-26T10:26:29.417Z,96338.42
2018-04-26T10:28:58.921Z,96344.73
2018-04-26T10:31:28.673Z,96337.49
2018-04-26T10:33:58.609Z,96341.84
2018-04-26T10:36:28.182Z,96346.09
2018-04-26T10:38:57.726Z,96347.00
2018-04-26T10:41:27.247Z,96348.50
2018-04-26T10:43:56.813Z,96346.26
2018-04-26T10:46:26.382Z,96347.08
2018-04-26T10:48:55.838Z,96339.39
2018-04-26T10:51:25.775Z,96338.38
2018-04-26T10:53:55.289Z,96348.38
2018-04-26T10:56:24.796Z,96342.91
2018-04-26T10:58:54.308Z,96344.14
2018-04-26T11:01:23.811Z,96349.34
2018-04-26T11:03:53.336Z,96344.11
2018-04-26T11:06:22.855Z,96341.05
2018-04-26T11:08:52.382Z,96337.03
2018-04-26T11:11:22.214Z,96338.20
2018-04-26T11:13:51.920Z,96333.65
2018-04-26T11:16:21.436Z,96335.61
2018-04-26T11:18:50.958Z,96328.61
2018-04-26T11:21:20.525Z,96335.41
2018-04-26T11:23:50.298Z,96340.69
2018-04-26T11:26:19.847Z,96338.95
2018-04-26T11:28:49.369Z,96335.83
2018-04-26T11:31:18.909Z,96329.18
2018-04-26T11:33:48.821Z,96327.24
2018-04-26T11:36:18.338Z,96323.78
2018-04-26T11:38:47.856Z,96323.94
2018-04-26T11:41:18.035Z,96328.30
2018-04-26T11:43:47.556Z,96325.98
2018-04-26T11:46:17.081Z,96329.88
2018-04-26T11:48:46.944Z,96324.73
2018-04-26T11:51:16.480Z,96323.94
2018-04-26T11:53:46.006Z,96328.86
2018-04-26T11:56:16.841Z,96320.20
2018-04-26T11:58:46.483Z,96322.14
2018-04-26T12:01:16.014Z,96329.05
2018-04-26T12:03:45.926Z,96333.17
2018-04-26T12:06:15.497Z,96322.27
2018-04-26T12:08:45.050Z,96327.14
2018-04-26T12:11:14.518Z,96313.73
2018-04-26T12:13:43.786Z,96320.94
2018-04-26T12:16:13.310Z,96307.70
2018-04-26T12:18:42.806Z,96309.59
2018-04-26T12:21:12.762Z,96308.80
2018-04-26T12:23:42.671Z,96300.62
2018-04-26T12:26:12.578Z,96304.28
2018-04-26T12:28:42.093Z,96300.81
2018-04-26T12:31:11.994Z,96310.09
2018-04-26T12:33:41.270Z,96301.62
2018-04-26T12:36:10.781Z,96306.69
2018-04-26T12:38:40.361Z,96299.48
2018-04-26T12:41:10.464Z,96304.13
2018-04-26T12:43:40.580Z,96302.00
2018-04-26T12:46:10.082Z,96310.49
2018-04-26T12:48:39.586Z,96308.98
2018-04-26T12:51:09.496Z,96309.76
2018-04-26T12:53:39.402Z,96300.02
2018-04-26T12:56:09.346Z,96299.53
2018-04-26T12:58:39.434Z,96307.68
2018-04-26T13:01:10.132Z,96297.91
2018-04-26T13:03:39.722Z,96300.82
2018-04-26T13:06:09.236Z,96290.93
2018-04-26T13:08:38.777Z,96300.50
2018-04-26T13:11:08.817Z,96301.17
2018-04-26T13:13:38.731Z,96305.00
2018-04-26T13:16:08.314Z,96302.73
2018-04-26T13:18:37.805Z,96297.59
2018-04-26T13:21:07.349Z,96299.08
2018-04-26T13:23:37.026Z,96290.56
2018-04-26T13:26:06.568Z,96290.56
2018-04-26T13:28:36.463Z,96294.31
2018-04-26T13:31:05.969Z,96292.97
2018-04-26T13:33:35.457Z,96285.47
2018-04-26T13:36:04.969Z,96289.16
2018-04-26T13:38:34.467Z,96282.88
2018-04-26T13:41:04.011Z,96276.38
2018-04-26T13:43:33.969Z,96284.63
2018-04-26T13:46:03.540Z,96277.36
2018-04-26T13:48:33.015Z,96269.09
2018-04-26T13:51:02.301Z,96270.75
2018-04-26T13:53:31.503Z,96262.70
2018-04-26T13:56:01.034Z,96254.66
2018-04-26T13:58:30.946Z,96244.59
2018-04-26T14:01:00.491Z,96250.69
2018-04-26T14:03:30.011Z,96246.49
2018-04-26T14:05:59.520Z,96245.50
2018-04-26T14:08:29.019Z,96238.09
2018-04-26T14:10:59.209Z,96237.73
2018-04-26T14:13:28.743Z,96233.96
2018-04-26T14:15:58.003Z,96244.88
2018-04-26T14:18:28.335Z,96236.67
2018-04-26T14:20:58.257Z,96230.69
2018-04-26T14:23:27.770Z,96235.86
2018-04-26T14:25:57.511Z,96238.91
2018-04-26T14:28:27.269Z,96236.61
2018-04-26T14:30:57.186Z,96234.45
2018-04-26T14:33:27.096Z,96236.30
2018-04-26T14:35:56.596Z,96235.77
2018-04-26T14:38:26.107Z,96244.08
2018-04-26T14:40:56.339Z,96235.28
2018-04-26T14:43:26.315Z,96233.34
2018-04-26T14:45:55.951Z,96228.84
2018-04-26T14:48:25.867Z,96231.44
2018-04-26T14:50:55.393Z,96230.20
2018-04-26T14:53:26.139Z,96236.08
2018-04-26T14:55:55.645Z,96227.08
2018-04-26T14:58:25.148Z,96220.16
2018-04-26T15:00:54.664Z,96215.11
2018-04-26T15:03:24.187Z,96213.07
2018-04-26T15:05:53.703Z,96222.81
2018-04-26T15:08:23.262Z,96219.45
2018-04-26T15:10:52.953Z,96208.60
2018-04-26T15:13:22.472Z,96209.91
2018-04-26T15:15:52.395Z,96206.71
2018-04-26T15:18:22.316Z,96212.25
2018-04-26T15:20:51.829Z,96210.41
2018-04-26T15:23:21.362Z,96204.36
2018-04-26T15:25:50.892Z,96201.12
2018-04-26T15:28:20.590Z,96199.84
2018-04-26T15:30:50.125Z,96206.94
2018-04-26T15:33:19.644Z,96209.60
2018-04-26T15:35:49.554Z,96200.85
2018-04-26T15:38:20.011Z,96199.23
2018-04-26T15:40:49.511Z,96197.48
2018-04-26T15:43:19.023Z,96199.34
2018-04-26T15:45:48.558Z,96194.73
2018-04-26T15:48:18.448Z,96200.48
2018-04-26T15:50:54.901Z,96199.97
2018-04-26T15:53:41.207Z,96200.66
2018-04-26T16:00:03.834Z,96195.88
2018-04-26T16:03:04.906Z,96191.09
2018-04-26T16:09:15.660Z,96186.86
2018-04-26T16:15:18.326Z,96179.64
2018-04-26T16:18:09.998Z,96183.72
2018-04-26T16:21:01.842Z,96182.75
2018-04-26T16:23:53.896Z,96185.17
2018-04-26T16:26:40.626Z,96182.12
2018-04-26T16:32:41.194Z,96181.66
2018-04-26T16:35:27.608Z,96182.24
2018-04-26T16:38:14.758Z,96181.22
2018-04-26T16:40:44.300Z,96174.20
2018-04-26T16:43:13.810Z,96180.00
2018-04-26T16:45:43.360Z,96183.53
2018-04-26T16:48:12.893Z,96181.26
2018-04-26T16:50:42.583Z,96178.08
2018-04-26T16:53:12.120Z,96183.64
2018-04-26T16:55:42.035Z,96193.08
2018-04-26T16:58:12.316Z,96196.08
2018-04-26T17:00:41.827Z,96188.16
2018-04-26T17:03:11.361Z,96188.00
2018-04-26T17:05:41.272Z,96183.21
2018-04-26T17:08:10.783Z,96182.36
2018-04-26T17:10:40.685Z,96187.00
2018-04-26T17:13:10.231Z,96177.91
2018-04-26T17:15:39.763Z,96181.27
2018-04-26T17:18:09.320Z,96172.88
2018-04-26T17:20:38.857Z,96167.48
2018-04-26T17:26:43.401Z,96156.38
2018-04-26T17:29:13.190Z,96162.16
2018-04-26T17:31:42.716Z,96166.46
2018-04-26T17:34:12.240Z,96172.41
2018-04-26T17:36:41.772Z,96177.86
2018-04-26T17:46:22.952Z,96180.05
2018-04-26T17:48:52.443Z,96173.13
2018-04-26T17:51:22.369Z,96176.65
2018-04-26T17:53:51.892Z,96174.07
2018-04-26T17:56:21.408Z,96178.25
2018-04-26T17:58:50.995Z,96182.42
2018-04-26T18:01:20.508Z,96181.70
2018-04-26T18:03:50.028Z,96178.50
2018-04-26T18:06:19.752Z,96177.91
2018-04-26T18:08:49.268Z,96179.99
2018-04-26T18:11:18.786Z,96186.34
2018-04-26T18:13:48.310Z,96191.52
2018-04-26T18:16:18.218Z,96194.25
2018-04-26T18:18:47.744Z,96195.78
2018-04-26T18:21:18.445Z,96196.66
2018-04-26T18:23:48.101Z,96196.05
2018-04-26T18:26:17.613Z,96196.60
2018-04-26T18:28:46.923Z,96191.88
2018-04-26T18:31:16.443Z,96198.20
2018-04-26T18:33:45.976Z,96197.30
2018-04-26T18:36:15.512Z,96203.17
2018-04-26T18:38:45.409Z,96206.48
2018-04-26T18:41:15.322Z,96202.39
2018-04-26T18:43:45.056Z,96204.77
2018-04-26T18:46:14.572Z,96207.12
2018-04-26T18:48:44.097Z,96202.42
2018-04-26T18:51:13.637Z,96206.36
2018-04-26T18:53:43.322Z,96207.90
2018-04-26T18:56:12.832Z,96208.34
2018-04-26T18:58:42.036Z,96210.69
2018-04-26T19:01:11.568Z,96218.97
2018-04-26T19:03:41.488Z,96220.06
2018-04-26T19:06:11.714Z,96226.38
2018-04-26T19:08:41.746Z,96220.18
2018-04-26T19:11:11.379Z,96220.69
2018-04-26T19:13:40.908Z,96222.27
2018-04-26T19:16:10.454Z,96230.05
2018-04-26T19:18:40.578Z,96227.06
2018-04-26T19:21:10.484Z,96227.03
2018-04-26T19:23:40.424Z,96227.89
2018-04-26T19:26:09.632Z,96229.47
2018-04-26T19:28:39.173Z,96226.86
2018-04-26T19:31:08.706Z,96229.99
2018-04-26T19:33:38.629Z,96228.30
2018-04-26T19:36:08.593Z,96238.05
2018-04-26T19:38:38.964Z,96233.81
2018-04-26T19:41:08.621Z,96241.23
2018-04-26T19:43:38.431Z,96223.83
2018-04-26T19:46:07.943Z,96225.17
2018-04-26T19:48:37.480Z,96221.86
2018-04-26T19:51:06.751Z,96225.95
2018-04-26T19:53:36.366Z,96223.22
2018-04-26T19:56:05.869Z,96228.73
2018-04-26T19:58:36.973Z,96228.05
2018-04-26T20:01:06.865Z,96229.80
2018-04-26T20:03:36.380Z,96233.49
2018-04-26T20:06:05.913Z,96226.64
2018-04-26T20:08:37.040Z,96232.33
2018-04-26T20:11:06.987Z,96229.20
2018-04-26T20:13:36.515Z,96227.77
2018-04-26T20:16:07.897Z,96225.70
2018-04-26T20:18:37.169Z,96228.16
2018-04-26T20:21:06.679Z,96230.89
2018-04-26T20:23:36.384Z,96222.61
2018-04-26T20:26:05.930Z,96225.77
2018-04-26T20:28:35.886Z,96219.27
2018-04-26T20:31:05.409Z,96220.44
2018-04-26T20:33:34.923Z,96216.91
2018-04-26T20:36:04.453Z,96212.22
2018-04-26T20:38:34.159Z,96212.78
2018-04-26T20:41:03.658Z,96210.42
2018-04-26T20:43:33.162Z,96210.73
2018-04-26T20:46:02.663Z,96206.28
2018-04-26T20:48:42.192Z,96205.77
2018-04-26T20:51:11.910Z,96198.27
2018-04-26T20:53:41.433Z,96205.20
2018-04-26T20:56:10.957Z,96204.25
2018-04-26T20:58:40.891Z,96200.95
2018-04-26T21:01:10.405Z,96204.81
2018-04-26T21:03:39.911Z,96194.00
2018-04-26T21:06:09.431Z,96199.28
2018-04-26T21:08:38.977Z,96197.07
2018-04-26T21:11:08.505Z,96195.46
2018-04-26T21:13:38.305Z,96189.62
2018-04-26T21:16:07.814Z,96196.25
2018-04-26T21:18:37.743Z,96191.97
2018-04-26T21:21:07.716Z,96188.27
2018-04-26T21:23:37.212Z,96180.06
2018-04-26T21:26:06.846Z,96187.09
2018-04-26T21:28:36.449Z,96191.77
2018-04-26T21:31:06.115Z,96186.90
2018-04-26T21:33:35.614Z,96185.88
2018-04-26T21:36:05.119Z,96183.73
2018-04-26T21:38:34.638Z,96189.18
2018-04-26T21:41:04.151Z,96184.11
2018-04-26T21:43:33.681Z,96185.89
2018-04-26T21:46:03.385Z,96185.13
2018-04-26T21:48:32.904Z,96192.72
2018-04-26T21:51:07.758Z,96191.93
2018-04-26T21:53:43.054Z,96178.69
2018-04-26T21:56:18.360Z,96178.52
2018-04-26T21:58:53.072Z,96179.48
2018-04-26T22:01:28.299Z,96178.70
2018-04-26T22:07:08.958Z,96177.16
2018-04-26T22:09:38.811Z,96170.33
2018-04-26T22:12:08.720Z,96169.16
2018-04-26T22:14:38.648Z,96170.93
2018-04-26T22:17:08.915Z,96175.60
2018-04-26T22:19:38.460Z,96174.42
2018-04-26T22:22:08.386Z,96169.92
2018-04-26T22:24:38.316Z,96165.05
2018-04-26T22:27:07.822Z,96169.12
2018-04-26T22:29:37.441Z,96170.47
2018-04-26T22:32:06.946Z,96164.66
2018-04-26T22:34:36.480Z,96166.20
2018-04-26T22:37:05.997Z,96165.44
2018-04-26T22:39:35.500Z,96157.27
2018-04-26T22:43:06.329Z,96163.88
2018-04-26T22:45:35.843Z,96156.28
2018-04-26T22:48:05.027Z,96146.75
2018-04-26T22:50:34.521Z,96142.86
2018-04-26T22:53:05.648Z,96142.65
2018-04-26T22:55:35.757Z,96140.92
2018-04-26T22:58:05.673Z,96145.78
2018-04-26T23:00:35.361Z,96142.06
2018-04-26T23:03:04.875Z,96144.37
2018-04-26T23:05:34.395Z,96146.92
2018-04-26T23:08:04.313Z,96142.03
2018-04-26T23:10:34.233Z,96138.91
2018-04-26T23:13:04.143Z,96141.07
2018-04-26T23:15:34.074Z,96142.02
2018-04-26T23:18:03.588Z,96134.41
2018-04-26T23:20:33.095Z,96135.38
2018-04-26T23:23:02.879Z,96134.64
2018-04-26T23:25:32.805Z,96131.50
2018-04-26T23:28:02.333Z,96129.38
2018-04-26T23:30:31.863Z,96131.34
2018-04-26T23:33:01.366Z,96126.09
2018-04-26T23:35:30.889Z,96124.69
2018-04-26T23:38:00.419Z,96120.23
2018-04-26T23:40:30.359Z,96120.02
2018-04-26T23:42:59.870Z,96115.55
2018-04-26T23:45:29.383Z,96119.45
2018-04-26T23:47:58.887Z,96119.64
2018-04-26T23:51:06.411Z,96118.09
2018-04-26T23:53:35.955Z,96114.95
2018-04-26T23:56:05.867Z,96118.84
2018-04-26T23:58:35.771Z,96107.56
